• Join FlightAware (Why Join?)
  • Login
  • US Flag 
11:10PM EDT


 

Airport Tracker/Info


-or-


 

Live Flight TrackerFlight Track Log ✈ SWA2874 ✈ 25-Apr-2013 ✈ KBNA - KGSP

Flight Track Log - Related Links

Times and Time Zones

All times are in EDT time to prevent confusion due to time zone crossing. See the SWA2874 flight status page for this flight to view local times or setup timezone preferences in your user account.

Time Position Orientation Groundspeed Altitude Reporting Facility
EDT Latitude Longitude Course Direction KTS MPH feet Rate Location/Type
06:02PM 36.1667 -86.6167 50° Northeast 195 224 3,400  Level Nashville TRACON
06:03PM 36.2000 -86.5500 58° Northeast 280 322 6,900 3,300 Climbing Nashville TRACON
06:04PM 36.1733 -86.4283 105° East 315 362 11,200 3,420 Climbing Memphis Center
06:05PM 36.1381 -86.3014 109° East 342 394 15,000 3,480 Climbing Memphis Center
06:06PM 36.0983 -86.1750 111° Southeast 376 433 18,200 3,120 Climbing Memphis Center
06:07PM 36.0667 -86.0406 106° East 392 451 21,300 2,700 Climbing Memphis Center
06:09PM 36.0500 -85.7953 95° East 458 527 25,600 2,580 Climbing Atlanta Center
06:10PM 36.0375 -85.6358 95° East 458 527 28,400 1,680 Climbing Atlanta Center
06:11PM 36.0269 -85.4714 94° East 466 536 29,000 300 Climbing Atlanta Center
06:12PM 36.0144 -85.2914 95° East 498 573 29,000  Level Atlanta Center
06:13PM 36.0014 -85.1117 95° East 520 598 29,000  Level Atlanta Center
06:14PM 35.9883 -84.9114 95° East 525 604 29,000  Level Atlanta Center
06:15PM 35.9731 -84.7289 96° East 530 610 29,000  Level Atlanta Center
06:16PM 35.9572 -84.5492 96° East 530 610 29,000 -120 Level Atlanta Center
06:17PM 35.9431 -84.3644 95° East 530 610 28,800 -600 Descending Atlanta Center
06:18PM 35.9289 -84.1875 96° East 530 610 27,800 -960 Descending Atlanta Center
06:19PM 35.9144 -84.0081 96° East 530 610 26,900 -1,020 Descending Atlanta Center
06:20PM 35.8953 -83.8286 97° East 530 610 25,800 -1,080 Descending Atlanta Center
06:22PM 35.8483 -83.4881 100° East 514 592 23,800 -1,020 Descending Atlanta Center
06:23PM 35.8289 -83.3217 98° East 497 572 22,800 -1,020 Descending Atlanta Center
06:24PM 35.8028 -83.1606 101° East 486 559 21,800 -1,080 Descending Atlanta Center
06:25PM 35.7639 -83.0075 107° East 477 549 20,700 -1,080 Descending Atlanta Center
06:26PM 35.7003 -82.8728 120° Southeast 451 519 19,700 -1,020 Descending Atlanta Center
06:27PM 35.6364 -82.7408 121° Southeast 451 519 18,700 -900 Descending Atlanta Center
06:28PM 35.5850 -82.6342 121° Southeast 430 495 18,000 120 Descending Atlanta Center
06:29PM 35.5294 -82.5178 120° Southeast 405 466 19,000 -2,160 Climbing Atlanta Center
06:30PM 35.4694 -82.4017 122° Southeast 395 455 13,700 -3,720 Descending Atlanta Center
06:31PM 35.4181 -82.2956 121° Southeast 375 432 11,600 -2,100 Descending Atlanta Center
06:32PM 35.3319 -82.2619 162° South 321 369 9,500 -1,680 Descending Atlanta Center
06:33PM 35.2506 -82.2558 176° South 299 344 8,300 -1,260 Descending Atlanta Center
06:34PM 35.1731 -82.2475 175° South 284 327 7,000 -1,020 Descending Atlanta Center
06:35PM 35.1003 -82.2517 183° South 270 311 6,300 -960 Descending Atlanta Center
06:36PM 35.0189 -82.2583 184° South 270 311 5,100 -840 Descending Atlanta Center
06:37PM 34.9503 -82.2725 190° South 270 311 4,700 -600 Descending Atlanta Center
06:38PM 34.8986 -82.3192 217° Southwest 235 270 3,900 -840 Descending Atlanta Center
06:39PM 34.8447 -82.3406 198° South 235 270 3,100 -780 Descending Atlanta Center
06:40PM 34.8231 -82.2803 114° Southeast 147 169 2,400 -360 Descending Atlanta Center
06:41PM 34.7914 -82.2581 150° Southeast 147 169 2,400  Level Atlanta Center
06:43PM 34.8833 -82.2167 62° Northeast  Level FlightAware Approximate